Lambertville, MI

2:54 PM EDT on June 28, 2017 (GMT -0400)
Lambertville

Weather History for KDUH - February, 2013

Change the Weather History Date:

Thursday, February 28, 2013

  Actual Average (KTOL) Record (KTOL)
Temperature  
Mean Temperature 35 °F -  
Max Temperature 38 °F 40 °F 65 °F (2016)
Min Temperature 32 °F 21 °F -9 °F (2015)
Degree Days  
Heating Degree Days 30    
Moisture  
Dew Point 30 °F    
Average Humidity 84    
Maximum Humidity 92    
Minimum Humidity 72    
Precipitation  
Precipitation 0.00 in - - ()
Sea Level Pressure  
Sea Level Pressure 29.73 in    
Wind  
Wind Speed 7 mph (NW)    
Max Wind Speed 14 mph    
Max Gust Speed 20 mph    
Visibility 8 miles    
Events Snow    
Averages and records for this station are not official NWS values.
T = Trace of Precipitation, MM = Missing Value Source: NWS Daily Summary

Daily Weather History Graph

Daily Weather History Graph

Search for Another Location

Airport or City:

Trip Planner

Search our weather history database for the weather conditions in past years. The results will help you decide how hot, cold, wet, or windy it might be!

Date:

Astronomy

Feb. 28, 2013 Rise Set
Actual Time 7:10 AM EST 6:24 PM EST
Civil Twilight 6:42 AM EST 6:52 PM EST
Nautical Twilight 6:10 AM EST 7:24 PM EST
Astronomical Twilight 5:38 AM EST 7:56 PM EST
Moon 9:54 PM EST 8:16 AM EST
Length of Visible Light 12h 09m
Length of Day
11h 13m
Waning Gibbous, 91% of the Moon is Illuminated
Feb 28
Waning Gibbous
Mar 4
Last Quarter
Mar 11
New
Mar 19
First Quarter
Mar 27
Full

Hourly Weather History & Observations

Time (EST) Temp. Windchill Dew Point Humidity Pressure Visibility Wind Dir Wind Speed Gust Speed Precip Events Conditions
12:15 AM 32.7 °F 26.4 °F 30.2 °F 90% 29.58 in 10.0 mi WSW 6.9 mph - N/A   Overcast
12:35 AM 32.5 °F 27.1 °F 30.0 °F 90% 29.57 in 10.0 mi SW 5.8 mph - N/A   Overcast
12:55 AM 32.4 °F 26.9 °F 30.0 °F 91% 29.58 in 10.0 mi SW 5.8 mph - N/A   Overcast
1:15 AM 32.5 °F 26.2 °F 30.0 °F 90% 29.57 in 10.0 mi SW 6.9 mph - N/A   Overcast
1:35 AM 32.4 °F 26.0 °F 29.8 °F 90% 29.58 in 10.0 mi SW 6.9 mph - N/A   Overcast
2:15 AM 32.5 °F 27.1 °F 30.0 °F 90% 29.58 in 7.0 mi SW 5.8 mph - N/A   Overcast
2:35 AM 32.5 °F 25.5 °F 30.0 °F 90% 29.57 in 7.0 mi WSW 8.1 mph - N/A   Overcast
2:55 AM 32.5 °F 25.5 °F 30.2 °F 91% 29.57 in 7.0 mi WSW 8.1 mph - N/A   Overcast
3:15 AM 32.5 °F 27.1 °F 30.2 °F 91% 29.57 in 7.0 mi WSW 5.8 mph - N/A   Overcast
3:35 AM 32.5 °F 26.2 °F 30.2 °F 91% 29.57 in 7.0 mi WSW 6.9 mph - N/A   Overcast
3:55 AM 32.5 °F 28.1 °F 30.2 °F 91% 29.57 in 7.0 mi WSW 4.6 mph - N/A   Overcast
4:15 AM 32.5 °F 28.1 °F 30.2 °F 91% 29.57 in 5.0 mi SW 4.6 mph - N/A   Overcast
4:35 AM 32.7 °F 26.4 °F 30.4 °F 91% 29.57 in 5.0 mi WSW 6.9 mph - N/A   Overcast
4:55 AM 32.9 °F 27.5 °F 30.6 °F 91% 29.57 in 4.0 mi WSW 5.8 mph - N/A   Overcast
5:15 AM 32.9 °F 27.5 °F 30.9 °F 92% 29.58 in 4.0 mi WSW 5.8 mph - N/A   Overcast
5:35 AM 33.1 °F 27.7 °F 31.1 °F 92% 29.58 in 4.0 mi WSW 5.8 mph - N/A   Overcast
5:55 AM 33.4 °F 28.1 °F 31.5 °F 92% 29.59 in 4.0 mi West 5.8 mph - N/A Snow Light Snow
6:15 AM 33.4 °F 28.1 °F 31.1 °F 91% 29.59 in 2.0 mi West 5.8 mph - N/A Snow Light Snow
6:35 AM 33.4 °F 30.4 °F 31.5 °F 92% 29.60 in 1.8 mi West 3.5 mph - N/A Snow Light Snow
6:55 AM 33.8 °F 29.6 °F 31.6 °F 92% 29.60 in 3.0 mi WNW 4.6 mph - N/A Snow Light Snow
7:15 AM 33.6 °F 30.6 °F 31.6 °F 92% 29.61 in 2.5 mi WNW 3.5 mph - N/A Snow Light Snow
7:35 AM 33.8 °F 29.6 °F 31.6 °F 92% 29.62 in 2.0 mi WNW 4.6 mph - N/A Snow Light Snow
7:55 AM 33.8 °F 28.6 °F 31.6 °F 92% 29.62 in 2.0 mi NW 5.8 mph - N/A Snow Light Snow
8:15 AM 33.8 °F 27.7 °F 31.6 °F 92% 29.64 in 2.5 mi NW 6.9 mph - N/A Snow Light Snow
8:35 AM 34.0 °F 28.8 °F 31.8 °F 92% 29.65 in 2.0 mi NW 5.8 mph - N/A Snow Light Snow
8:55 AM 34.0 °F 28.8 °F 31.6 °F 91% 29.65 in 3.0 mi NW 5.8 mph - N/A Snow Light Snow
9:15 AM 34.2 °F 27.5 °F 31.6 °F 90% 29.66 in 7.0 mi NW 8.1 mph - N/A Snow Light Snow
9:35 AM 34.5 °F 28.6 °F 31.5 °F 89% 29.67 in 2.5 mi NW 6.9 mph - N/A Snow Light Snow
9:55 AM 34.9 °F 27.1 °F 31.6 °F 88% 29.67 in 2.5 mi NW 10.4 mph 18.4 mph N/A Snow Light Snow
10:15 AM 35.8 °F 28.8 °F 32.0 °F 86% 29.68 in 10.0 mi NW 9.2 mph - N/A   Overcast
10:35 AM 35.8 °F 27.8 °F 31.6 °F 85% 29.68 in 10.0 mi NNW 11.5 mph 17.3 mph N/A   Overcast
10:55 AM 36.3 °F 28.9 °F 31.8 °F 84% 29.69 in 10.0 mi NNW 10.4 mph 17.3 mph N/A   Overcast
11:15 AM 36.3 °F 28.4 °F 31.6 °F 83% 29.70 in 10.0 mi NW 11.5 mph 18.4 mph N/A   Overcast
11:35 AM 36.5 °F 30.3 °F 31.6 °F 83% 29.71 in 10.0 mi NW 8.1 mph - N/A   Overcast
11:55 AM 36.9 °F 30.1 °F 31.8 °F 82% 29.72 in 10.0 mi NW 9.2 mph 17.3 mph N/A   Overcast
12:15 PM 36.9 °F 30.1 °F 31.1 °F 80% 29.72 in 10.0 mi NNW 9.2 mph 17.3 mph N/A   Overcast
12:35 PM 37.0 °F 29.8 °F 31.8 °F 81% 29.73 in 10.0 mi NNW 10.4 mph 18.4 mph N/A   Overcast
12:55 PM 37.0 °F 29.3 °F 32.0 °F 82% 29.73 in 10.0 mi NNW 11.5 mph 16.1 mph N/A   Overcast
1:15 PM 38.1 °F 31.2 °F 31.6 °F 77% 29.73 in 10.0 mi NW 10.4 mph 16.1 mph N/A   Overcast
1:35 PM 38.3 °F 30.9 °F 31.8 °F 77% 29.74 in 10.0 mi NNW 11.5 mph - N/A   Overcast
1:55 PM 38.3 °F 30.5 °F 31.5 °F 76% 29.74 in 10.0 mi NW 12.7 mph 19.6 mph N/A   Overcast
2:15 PM 37.0 °F 29.8 °F 30.7 °F 78% 29.75 in 10.0 mi North 10.4 mph 16.1 mph N/A   Overcast
2:35 PM 37.8 °F 29.4 °F 30.2 °F 74% 29.75 in 10.0 mi North 13.8 mph 18.4 mph N/A   Overcast
2:55 PM 37.4 °F 30.3 °F 30.6 °F 76% 29.76 in 10.0 mi NNW 10.4 mph 18.4 mph N/A   Overcast
3:15 PM 37.9 °F 30.0 °F 30.2 °F 74% 29.77 in 10.0 mi NNW 12.7 mph 18.4 mph N/A   Overcast
3:35 PM 38.1 °F 29.8 °F 29.8 °F 72% 29.78 in 10.0 mi NNW 13.8 mph 18.4 mph N/A   Overcast
3:55 PM 37.8 °F 29.4 °F 29.7 °F 73% 29.79 in 10.0 mi NNW 13.8 mph 19.6 mph N/A   Overcast
4:15 PM 37.4 °F 29.8 °F 29.7 °F 74% 29.80 in 10.0 mi NNW 11.5 mph 17.3 mph N/A   Overcast
4:35 PM 36.5 °F 28.2 °F 28.9 °F 74% 29.81 in 10.0 mi NNW 12.7 mph 18.4 mph N/A   Overcast
4:55 PM 36.0 °F 28.5 °F 29.1 °F 76% 29.82 in 10.0 mi NW 10.4 mph - N/A   Overcast
5:15 PM 35.6 °F 28.6 °F 28.4 °F 75% 29.83 in 10.0 mi NNW 9.2 mph 16.1 mph N/A   Overcast
5:35 PM 35.2 °F 27.1 °F 27.7 °F 74% 29.84 in 10.0 mi NNW 11.5 mph 16.1 mph N/A   Overcast
5:55 PM 34.9 °F 27.1 °F 27.3 °F 74% 29.86 in 10.0 mi NNW 10.4 mph - N/A   Overcast
6:15 PM 34.7 °F 26.9 °F 26.8 °F 73% 29.87 in 10.0 mi NNW 10.4 mph - N/A   Overcast
6:55 PM 34.3 °F 27.0 °F 26.6 °F 73% 29.89 in 10.0 mi NNW 9.2 mph - N/A   Overcast
7:15 PM 34.2 °F 29.0 °F 27.0 °F 75% 29.90 in 10.0 mi NNW 5.8 mph - N/A   Overcast
7:35 PM 34.2 °F 29.0 °F 27.1 °F 75% 29.90 in 10.0 mi North 5.8 mph - N/A   Overcast
7:55 PM 34.0 °F 28.8 °F 27.5 °F 77% 29.91 in 10.0 mi North 5.8 mph - N/A   Overcast
8:15 PM 33.8 °F 28.6 °F 27.5 °F 78% 29.91 in 10.0 mi North 5.8 mph - N/A   Overcast
8:35 PM 33.3 °F 27.1 °F 28.4 °F 82% 29.92 in 10.0 mi North 6.9 mph - N/A   Overcast
8:55 PM 32.9 °F 28.5 °F 28.8 °F 85% 29.93 in 7.0 mi North 4.6 mph - N/A   Overcast
9:15 PM 32.4 °F 26.0 °F 28.4 °F 85% 29.93 in 7.0 mi North 6.9 mph - N/A   Overcast
9:35 PM 32.0 °F 26.4 °F 28.9 °F 88% 29.94 in 4.0 mi North 5.8 mph - N/A Snow Light Snow
9:55 PM 32.0 °F 27.5 °F 29.3 °F 90% 29.94 in 7.0 mi North 4.6 mph - N/A   Overcast
10:15 PM 32.0 °F 25.6 °F 28.4 °F 87% 29.95 in 4.0 mi North 6.9 mph - N/A   Overcast
10:35 PM 32.0 °F 27.5 °F 28.4 °F 87% 29.94 in 10.0 mi North 4.6 mph - N/A   Overcast
10:55 PM 32.0 °F 27.5 °F 28.2 °F 86% 29.94 in 10.0 mi North 4.6 mph - N/A   Overcast
11:15 PM 32.0 °F 26.4 °F 27.9 °F 85% 29.94 in 10.0 mi North 5.8 mph - N/A   Overcast
11:35 PM 32.0 °F 27.5 °F 27.5 °F 83% 29.94 in 10.0 mi North 4.6 mph - N/A   Overcast
11:55 PM 32.0 °F 27.5 °F 27.5 °F 83% 29.95 in 10.0 mi North 4.6 mph - N/A   Overcast